KBKE/BKE METAR and TAF weather

Enter ICAO airport designator
Station Type Date Time Source
KBKE METAR 2019/12/07 09:53 UTC NOAA

KBKE 070953Z AUTO 13013G19KT 10SM OVC085 04/01 A2993 RMK AO2 SLP144 T00440006


Station Type Date Time Source
KBKE Decoded METAR 2019/12/07 09:53 UTC NOAA

BAKER MUNICIPAL AIRPORT, OR, United States (KBKE) 44-50N 117-49W 1024M
Dec 07, 2019 - 04:53 AM EST / 2019.12.07 0953 UTC
Wind: from the SE (130 degrees) at 15 MPH (13 KT) gusting to 22 MPH (19 KT):0
Visibility: 10 mile(s):0
Sky conditions: overcast
Temperature: 39.9 F (4.4 C)
Dew Point: 33.1 F (0.6 C)
Relative Humidity: 76%
Pressure (altimeter): 29.93 in. Hg (1013 hPa)
ob: KBKE 070953Z AUTO 13013G19KT 10SM OVC085 04/01 A2993 RMK AO2 SLP144 T00440006
cycle: 10

Station Type Date Time Source
KBKE TAF 2019/12/07 06:36 UTC NOAA

TAF KBKE 070533Z 0706/0806 11015KT P6SM VCSH OVC035
FM071000 11015KT 4SM -RA OVC020

Example: see airport list